sensor_id;sensor_type;location;lat;lon;timestamp;P1;durP1;ratioP1;P2;durP2;ratioP2
46931;SDS011;32670;51.464;11.964;2024-01-15T00:00:21;3.13;;;2.70;;
46931;SDS011;32670;51.464;11.964;2024-01-15T00:02:47;3.13;;;2.83;;
46931;SDS011;32670;51.464;11.964;2024-01-15T00:05:12;3.40;;;3.10;;
46931;SDS011;32670;51.464;11.964;2024-01-15T00:07:40;3.00;;;2.70;;
46931;SDS011;32670;51.464;11.964;2024-01-15T00:10:06;2.90;;;2.70;;
46931;SDS011;32670;51.464;11.964;2024-01-15T00:12:32;2.70;;;2.50;;
46931;SDS011;32670;51.464;11.964;2024-01-15T00:14:57;2.60;;;2.40;;
46931;SDS011;32670;51.464;11.964;2024-01-15T00:17:23;2.77;;;2.50;;
46931;SDS011;32670;51.464;11.964;2024-01-15T00:19:48;2.57;;;2.37;;
46931;SDS011;32670;51.464;11.964;2024-01-15T00:22:13;2.90;;;2.70;;
46931;SDS011;32670;51.464;11.964;2024-01-15T00:24:39;3.20;;;2.90;;
46931;SDS011;32670;51.464;11.964;2024-01-15T00:27:04;4.80;;;2.50;;
46931;SDS011;32670;51.464;11.964;2024-01-15T00:29:30;3.23;;;2.60;;
46931;SDS011;32670;51.464;11.964;2024-01-15T00:31:55;4.50;;;2.80;;
46931;SDS011;32670;51.464;11.964;2024-01-15T00:34:21;7.30;;;3.20;;
46931;SDS011;32670;51.464;11.964;2024-01-15T00:36:46;4.80;;;3.23;;
46931;SDS011;32670;51.464;11.964;2024-01-15T00:39:12;4.23;;;2.80;;
46931;SDS011;32670;51.464;11.964;2024-01-15T00:41:37;3.57;;;2.77;;
46931;SDS011;32670;51.464;11.964;2024-01-15T00:44:03;2.93;;;2.60;;
46931;SDS011;32670;51.464;11.964;2024-01-15T00:46:28;3.10;;;2.80;;
46931;SDS011;32670;51.464;11.964;2024-01-15T00:48:54;3.47;;;3.13;;
46931;SDS011;32670;51.464;11.964;2024-01-15T00:51:19;2.63;;;2.43;;
46931;SDS011;32670;51.464;11.964;2024-01-15T00:53:45;7.33;;;2.80;;
46931;SDS011;32670;51.464;11.964;2024-01-15T00:56:10;2.90;;;2.50;;
46931;SDS011;32670;51.464;11.964;2024-01-15T00:58:36;4.07;;;2.80;;
46931;SDS011;32670;51.464;11.964;2024-01-15T01:01:01;3.03;;;2.70;;
46931;SDS011;32670;51.464;11.964;2024-01-15T01:03:27;3.83;;;2.70;;
46931;SDS011;32670;51.464;11.964;2024-01-15T01:05:54;3.00;;;2.70;;
46931;SDS011;32670;51.464;11.964;2024-01-15T01:08:19;2.93;;;2.70;;
46931;SDS011;32670;51.464;11.964;2024-01-15T01:10:44;3.73;;;2.50;;
46931;SDS011;32670;51.464;11.964;2024-01-15T01:13:10;3.97;;;2.73;;
46931;SDS011;32670;51.464;11.964;2024-01-15T01:15:35;2.83;;;2.53;;
46931;SDS011;32670;51.464;11.964;2024-01-15T01:18:01;3.57;;;2.70;;
46931;SDS011;32670;51.464;11.964;2024-01-15T01:20:27;4.33;;;2.80;;
46931;SDS011;32670;51.464;11.964;2024-01-15T01:22:52;3.90;;;2.63;;
46931;SDS011;32670;51.464;11.964;2024-01-15T01:25:18;2.97;;;2.60;;
46931;SDS011;32670;51.464;11.964;2024-01-15T01:27:43;20.07;;;2.73;;
46931;SDS011;32670;51.464;11.964;2024-01-15T01:30:09;2.97;;;2.67;;
46931;SDS011;32670;51.464;11.964;2024-01-15T01:32:34;6.30;;;2.67;;
46931;SDS011;32670;51.464;11.964;2024-01-15T01:35:00;3.40;;;2.50;;
46931;SDS011;32670;51.464;11.964;2024-01-15T01:37:26;2.87;;;2.27;;
46931;SDS011;32670;51.464;11.964;2024-01-15T01:39:51;3.73;;;2.77;;
46931;SDS011;32670;51.464;11.964;2024-01-15T01:42:17;4.30;;;2.47;;
46931;SDS011;32670;51.464;11.964;2024-01-15T01:44:42;2.70;;;2.50;;
46931;SDS011;32670;51.464;11.964;2024-01-15T01:47:08;3.07;;;2.40;;
46931;SDS011;32670;51.464;11.964;2024-01-15T01:49:34;3.93;;;2.53;;
46931;SDS011;32670;51.464;11.964;2024-01-15T01:52:04;3.30;;;2.50;;
46931;SDS011;32670;51.464;11.964;2024-01-15T01:54:32;5.03;;;2.67;;
46931;SDS011;32670;51.464;11.964;2024-01-15T01:56:58;2.63;;;2.43;;
46931;SDS011;32670;51.464;11.964;2024-01-15T01:59:27;2.37;;;2.17;;
46931;SDS011;32670;51.464;11.964;2024-01-15T02:01:56;2.93;;;2.60;;
46931;SDS011;32670;51.464;11.964;2024-01-15T02:04:24;2.67;;;2.47;;
46931;SDS011;32670;51.464;11.964;2024-01-15T02:06:50;3.53;;;2.47;;
46931;SDS011;32670;51.464;11.964;2024-01-15T02:09:16;2.60;;;2.40;;
46931;SDS011;32670;51.464;11.964;2024-01-15T02:11:46;3.43;;;2.70;;
46931;SDS011;32670;51.464;11.964;2024-01-15T02:14:12;2.83;;;2.50;;
46931;SDS011;32670;51.464;11.964;2024-01-15T02:16:37;4.70;;;2.47;;
46931;SDS011;32670;51.464;11.964;2024-01-15T02:19:03;2.63;;;2.43;;
46931;SDS011;32670;51.464;11.964;2024-01-15T02:21:28;4.37;;;2.40;;
46931;SDS011;32670;51.464;11.964;2024-01-15T02:23:55;2.50;;;2.23;;
46931;SDS011;32670;51.464;11.964;2024-01-15T02:26:20;2.87;;;2.57;;
46931;SDS011;32670;51.464;11.964;2024-01-15T02:28:49;2.33;;;2.20;;
46931;SDS011;32670;51.464;11.964;2024-01-15T02:31:16;4.47;;;2.40;;
46931;SDS011;32670;51.464;11.964;2024-01-15T02:33:42;2.50;;;2.30;;
46931;SDS011;32670;51.464;11.964;2024-01-15T02:36:08;2.63;;;2.30;;
46931;SDS011;32670;51.464;11.964;2024-01-15T02:38:34;4.23;;;2.77;;
46931;SDS011;32670;51.464;11.964;2024-01-15T02:41:00;2.83;;;2.57;;
46931;SDS011;32670;51.464;11.964;2024-01-15T02:43:25;2.70;;;2.27;;
46931;SDS011;32670;51.464;11.964;2024-01-15T02:45:51;3.13;;;2.53;;
46931;SDS011;32670;51.464;11.964;2024-01-15T02:48:16;2.60;;;2.40;;
46931;SDS011;32670;51.464;11.964;2024-01-15T02:50:42;2.40;;;2.20;;
46931;SDS011;32670;51.464;11.964;2024-01-15T02:53:07;4.70;;;2.60;;
46931;SDS011;32670;51.464;11.964;2024-01-15T02:55:33;2.50;;;2.30;;
46931;SDS011;32670;51.464;11.964;2024-01-15T02:57:59;2.37;;;2.17;;
46931;SDS011;32670;51.464;11.964;2024-01-15T03:00:24;2.63;;;2.30;;
46931;SDS011;32670;51.464;11.964;2024-01-15T03:02:50;3.27;;;2.27;;
46931;SDS011;32670;51.464;11.964;2024-01-15T03:05:16;3.70;;;1.90;;
46931;SDS011;32670;51.464;11.964;2024-01-15T03:07:42;3.80;;;2.40;;
46931;SDS011;32670;51.464;11.964;2024-01-15T03:10:08;2.47;;;2.27;;
46931;SDS011;32670;51.464;11.964;2024-01-15T03:12:34;4.57;;;2.37;;
46931;SDS011;32670;51.464;11.964;2024-01-15T03:14:59;3.07;;;2.13;;
46931;SDS011;32670;51.464;11.964;2024-01-15T03:17:25;4.10;;;2.27;;
46931;SDS011;32670;51.464;11.964;2024-01-15T03:19:50;2.80;;;2.27;;
46931;SDS011;32670;51.464;11.964;2024-01-15T03:22:16;2.37;;;2.13;;
46931;SDS011;32670;51.464;11.964;2024-01-15T03:24:42;2.30;;;2.10;;
46931;SDS011;32670;51.464;11.964;2024-01-15T03:27:08;2.60;;;2.00;;
46931;SDS011;32670;51.464;11.964;2024-01-15T03:29:33;2.57;;;2.30;;
46931;SDS011;32670;51.464;11.964;2024-01-15T03:31:59;2.50;;;2.30;;
46931;SDS011;32670;51.464;11.964;2024-01-15T03:34:25;2.47;;;2.27;;
46931;SDS011;32670;51.464;11.964;2024-01-15T03:36:50;2.50;;;2.10;;
46931;SDS011;32670;51.464;11.964;2024-01-15T03:39:16;2.43;;;2.20;;
46931;SDS011;32670;51.464;11.964;2024-01-15T03:41:41;2.50;;;2.30;;
46931;SDS011;32670;51.464;11.964;2024-01-15T03:44:07;2.43;;;2.23;;
46931;SDS011;32670;51.464;11.964;2024-01-15T03:46:32;2.40;;;2.20;;
46931;SDS011;32670;51.464;11.964;2024-01-15T03:48:58;2.63;;;2.00;;
46931;SDS011;32670;51.464;11.964;2024-01-15T03:51:23;2.23;;;2.10;;
46931;SDS011;32670;51.464;11.964;2024-01-15T03:53:49;2.10;;;1.90;;
46931;SDS011;32670;51.464;11.964;2024-01-15T03:56:15;2.30;;;2.10;;
46931;SDS011;32670;51.464;11.964;2024-01-15T03:58:40;3.60;;;2.10;;
46931;SDS011;32670;51.464;11.964;2024-01-15T04:01:09;2.60;;;2.40;;
46931;SDS011;32670;51.464;11.964;2024-01-15T04:03:35;2.33;;;2.13;;
46931;SDS011;32670;51.464;11.964;2024-01-15T04:06:01;3.03;;;2.50;;
46931;SDS011;32670;51.464;11.964;2024-01-15T04:08:27;2.47;;;2.27;;
46931;SDS011;32670;51.464;11.964;2024-01-15T04:10:52;2.23;;;2.03;;
46931;SDS011;32670;51.464;11.964;2024-01-15T04:13:18;2.00;;;1.90;;
46931;SDS011;32670;51.464;11.964;2024-01-15T04:15:43;2.20;;;2.00;;
46931;SDS011;32670;51.464;11.964;2024-01-15T04:18:09;2.10;;;2.00;;
46931;SDS011;32670;51.464;11.964;2024-01-15T04:20:34;2.70;;;2.50;;
46931;SDS011;32670;51.464;11.964;2024-01-15T04:23:00;2.13;;;2.00;;
46931;SDS011;32670;51.464;11.964;2024-01-15T04:25:25;2.30;;;2.10;;
46931;SDS011;32670;51.464;11.964;2024-01-15T04:27:51;2.10;;;1.90;;
46931;SDS011;32670;51.464;11.964;2024-01-15T04:30:16;3.07;;;1.83;;
46931;SDS011;32670;51.464;11.964;2024-01-15T04:32:42;2.27;;;1.93;;
46931;SDS011;32670;51.464;11.964;2024-01-15T04:35:07;2.30;;;2.10;;
46931;SDS011;32670;51.464;11.964;2024-01-15T04:37:33;4.13;;;2.00;;
46931;SDS011;32670;51.464;11.964;2024-01-15T04:39:58;2.13;;;1.93;;
46931;SDS011;32670;51.464;11.964;2024-01-15T04:42:24;2.27;;;2.03;;
46931;SDS011;32670;51.464;11.964;2024-01-15T04:44:49;2.03;;;1.83;;
46931;SDS011;32670;51.464;11.964;2024-01-15T04:47:15;2.17;;;1.97;;
46931;SDS011;32670;51.464;11.964;2024-01-15T04:49:41;2.53;;;1.87;;
46931;SDS011;32670;51.464;11.964;2024-01-15T04:52:07;1.90;;;1.80;;
46931;SDS011;32670;51.464;11.964;2024-01-15T04:54:35;4.20;;;1.90;;
46931;SDS011;32670;51.464;11.964;2024-01-15T04:57:00;3.10;;;2.10;;
46931;SDS011;32670;51.464;11.964;2024-01-15T04:59:26;2.10;;;1.90;;
46931;SDS011;32670;51.464;11.964;2024-01-15T05:01:51;2.40;;;1.80;;
46931;SDS011;32670;51.464;11.964;2024-01-15T05:04:17;2.43;;;2.10;;
46931;SDS011;32670;51.464;11.964;2024-01-15T05:06:42;2.17;;;1.80;;
46931;SDS011;32670;51.464;11.964;2024-01-15T05:09:08;2.33;;;2.10;;
46931;SDS011;32670;51.464;11.964;2024-01-15T05:11:33;3.07;;;2.10;;
46931;SDS011;32670;51.464;11.964;2024-01-15T05:13:59;2.20;;;1.90;;
46931;SDS011;32670;51.464;11.964;2024-01-15T05:16:24;3.97;;;2.07;;
46931;SDS011;32670;51.464;11.964;2024-01-15T05:18:49;2.00;;;1.80;;
46931;SDS011;32670;51.464;11.964;2024-01-15T05:21:15;1.87;;;1.77;;
46931;SDS011;32670;51.464;11.964;2024-01-15T05:23:41;2.13;;;1.80;;
46931;SDS011;32670;51.464;11.964;2024-01-15T05:26:06;1.97;;;1.87;;
46931;SDS011;32670;51.464;11.964;2024-01-15T05:28:34;1.97;;;1.87;;
46931;SDS011;32670;51.464;11.964;2024-01-15T05:30:59;2.93;;;2.00;;
46931;SDS011;32670;51.464;11.964;2024-01-15T05:33:25;2.00;;;1.80;;
46931;SDS011;32670;51.464;11.964;2024-01-15T05:35:50;5.20;;;1.90;;
46931;SDS011;32670;51.464;11.964;2024-01-15T05:38:16;2.10;;;1.90;;
46931;SDS011;32670;51.464;11.964;2024-01-15T05:40:42;2.13;;;1.93;;
46931;SDS011;32670;51.464;11.964;2024-01-15T05:43:08;2.00;;;1.90;;
46931;SDS011;32670;51.464;11.964;2024-01-15T05:45:37;1.90;;;1.80;;
46931;SDS011;32670;51.464;11.964;2024-01-15T05:48:03;1.73;;;1.63;;
46931;SDS011;32670;51.464;11.964;2024-01-15T05:50:29;1.90;;;1.70;;
46931;SDS011;32670;51.464;11.964;2024-01-15T05:52:55;1.60;;;1.50;;
46931;SDS011;32670;51.464;11.964;2024-01-15T05:55:20;3.13;;;1.80;;
46931;SDS011;32670;51.464;11.964;2024-01-15T05:57:46;2.00;;;1.80;;
46931;SDS011;32670;51.464;11.964;2024-01-15T06:00:11;1.93;;;1.77;;
46931;SDS011;32670;51.464;11.964;2024-01-15T06:02:37;2.00;;;1.90;;
46931;SDS011;32670;51.464;11.964;2024-01-15T06:05:04;1.90;;;1.60;;
46931;SDS011;32670;51.464;11.964;2024-01-15T06:07:30;2.57;;;1.80;;
46931;SDS011;32670;51.464;11.964;2024-01-15T06:09:55;1.87;;;1.77;;
46931;SDS011;32670;51.464;11.964;2024-01-15T06:12:22;2.03;;;1.80;;
46931;SDS011;32670;51.464;11.964;2024-01-15T06:14:47;1.83;;;1.73;;
46931;SDS011;32670;51.464;11.964;2024-01-15T06:17:13;1.80;;;1.70;;
46931;SDS011;32670;51.464;11.964;2024-01-15T06:19:38;1.90;;;1.80;;
46931;SDS011;32670;51.464;11.964;2024-01-15T06:22:04;1.77;;;1.67;;
46931;SDS011;32670;51.464;11.964;2024-01-15T06:24:29;1.83;;;1.73;;
46931;SDS011;32670;51.464;11.964;2024-01-15T06:26:55;1.77;;;1.67;;
46931;SDS011;32670;51.464;11.964;2024-01-15T06:29:20;1.80;;;1.70;;
46931;SDS011;32670;51.464;11.964;2024-01-15T06:31:46;2.00;;;1.90;;
46931;SDS011;32670;51.464;11.964;2024-01-15T06:34:11;1.77;;;1.67;;
46931;SDS011;32670;51.464;11.964;2024-01-15T06:36:37;4.17;;;1.80;;
46931;SDS011;32670;51.464;11.964;2024-01-15T06:39:03;1.77;;;1.67;;
46931;SDS011;32670;51.464;11.964;2024-01-15T06:41:29;1.87;;;1.60;;
46931;SDS011;32670;51.464;11.964;2024-01-15T06:43:54;1.50;;;1.40;;
46931;SDS011;32670;51.464;11.964;2024-01-15T06:46:21;2.53;;;1.60;;
46931;SDS011;32670;51.464;11.964;2024-01-15T06:48:49;1.73;;;1.63;;
46931;SDS011;32670;51.464;11.964;2024-01-15T06:51:15;6.80;;;1.90;;
46931;SDS011;32670;51.464;11.964;2024-01-15T06:53:41;2.30;;;1.60;;
46931;SDS011;32670;51.464;11.964;2024-01-15T06:56:06;4.80;;;1.70;;
46931;SDS011;32670;51.464;11.964;2024-01-15T06:58:32;5.37;;;1.83;;
46931;SDS011;32670;51.464;11.964;2024-01-15T07:00:58;3.57;;;1.80;;
46931;SDS011;32670;51.464;11.964;2024-01-15T07:03:25;5.67;;;1.80;;
46931;SDS011;32670;51.464;11.964;2024-01-15T07:05:51;5.40;;;1.60;;
46931;SDS011;32670;51.464;11.964;2024-01-15T07:08:16;2.40;;;1.60;;
46931;SDS011;32670;51.464;11.964;2024-01-15T07:10:42;5.67;;;1.70;;
46931;SDS011;32670;51.464;11.964;2024-01-15T07:13:08;5.87;;;1.90;;
46931;SDS011;32670;51.464;11.964;2024-01-15T07:15:34;7.50;;;1.83;;
46931;SDS011;32670;51.464;11.964;2024-01-15T07:17:59;10.10;;;1.97;;
46931;SDS011;32670;51.464;11.964;2024-01-15T07:20:25;1.80;;;1.60;;
46931;SDS011;32670;51.464;11.964;2024-01-15T07:22:50;5.73;;;1.73;;
46931;SDS011;32670;51.464;11.964;2024-01-15T07:25:16;6.10;;;2.00;;
46931;SDS011;32670;51.464;11.964;2024-01-15T07:27:41;2.30;;;1.80;;
46931;SDS011;32670;51.464;11.964;2024-01-15T07:30:09;4.50;;;2.20;;
46931;SDS011;32670;51.464;11.964;2024-01-15T07:32:36;5.77;;;2.27;;
46931;SDS011;32670;51.464;11.964;2024-01-15T07:35:01;3.57;;;2.50;;
46931;SDS011;32670;51.464;11.964;2024-01-15T07:37:27;3.17;;;2.30;;
46931;SDS011;32670;51.464;11.964;2024-01-15T07:39:53;3.97;;;2.50;;
46931;SDS011;32670;51.464;11.964;2024-01-15T07:42:18;3.90;;;2.50;;
46931;SDS011;32670;51.464;11.964;2024-01-15T07:44:44;3.63;;;2.80;;
46931;SDS011;32670;51.464;11.964;2024-01-15T07:47:10;3.40;;;2.40;;
46931;SDS011;32670;51.464;11.964;2024-01-15T07:49:35;5.77;;;2.47;;
46931;SDS011;32670;51.464;11.964;2024-01-15T07:52:01;4.37;;;2.83;;
46931;SDS011;32670;51.464;11.964;2024-01-15T07:54:26;4.33;;;2.73;;
46931;SDS011;32670;51.464;11.964;2024-01-15T07:56:58;3.07;;;2.40;;
46931;SDS011;32670;51.464;11.964;2024-01-15T07:59:25;3.53;;;2.23;;
46931;SDS011;32670;51.464;11.964;2024-01-15T08:01:51;3.93;;;2.20;;
46931;SDS011;32670;51.464;11.964;2024-01-15T08:04:17;3.23;;;2.50;;
46931;SDS011;32670;51.464;11.964;2024-01-15T08:06:43;4.57;;;2.60;;
46931;SDS011;32670;51.464;11.964;2024-01-15T08:09:10;3.77;;;1.90;;
46931;SDS011;32670;51.464;11.964;2024-01-15T08:11:35;5.47;;;2.30;;
46931;SDS011;32670;51.464;11.964;2024-01-15T08:14:01;7.63;;;2.50;;
46931;SDS011;32670;51.464;11.964;2024-01-15T08:16:26;3.93;;;2.30;;
46931;SDS011;32670;51.464;11.964;2024-01-15T08:18:52;4.43;;;2.17;;
46931;SDS011;32670;51.464;11.964;2024-01-15T08:21:18;4.83;;;2.37;;
46931;SDS011;32670;51.464;11.964;2024-01-15T08:23:44;6.17;;;2.40;;
46931;SDS011;32670;51.464;11.964;2024-01-15T08:26:10;5.73;;;2.27;;
46931;SDS011;32670;51.464;11.964;2024-01-15T08:28:35;4.03;;;2.10;;
46931;SDS011;32670;51.464;11.964;2024-01-15T08:31:01;5.07;;;2.20;;
46931;SDS011;32670;51.464;11.964;2024-01-15T08:33:27;1.93;;;1.73;;
46931;SDS011;32670;51.464;11.964;2024-01-15T08:35:53;2.70;;;1.87;;
46931;SDS011;32670;51.464;11.964;2024-01-15T08:38:19;2.87;;;2.17;;
46931;SDS011;32670;51.464;11.964;2024-01-15T08:40:44;6.43;;;2.20;;
46931;SDS011;32670;51.464;11.964;2024-01-15T08:43:10;2.60;;;1.90;;
46931;SDS011;32670;51.464;11.964;2024-01-15T08:45:35;3.23;;;2.27;;
46931;SDS011;32670;51.464;11.964;2024-01-15T08:48:01;3.53;;;2.00;;
46931;SDS011;32670;51.464;11.964;2024-01-15T08:50:27;2.57;;;1.90;;
46931;SDS011;32670;51.464;11.964;2024-01-15T08:52:52;2.43;;;1.97;;
46931;SDS011;32670;51.464;11.964;2024-01-15T08:55:18;2.10;;;1.53;;
46931;SDS011;32670;51.464;11.964;2024-01-15T08:57:43;2.73;;;1.90;;
46931;SDS011;32670;51.464;11.964;2024-01-15T09:00:09;2.10;;;1.80;;
46931;SDS011;32670;51.464;11.964;2024-01-15T09:02:35;2.60;;;2.13;;
46931;SDS011;32670;51.464;11.964;2024-01-15T09:05:01;2.17;;;1.73;;
46931;SDS011;32670;51.464;11.964;2024-01-15T09:07:26;2.40;;;1.63;;
46931;SDS011;32670;51.464;11.964;2024-01-15T09:09:52;3.10;;;1.60;;
46931;SDS011;32670;51.464;11.964;2024-01-15T09:12:18;2.73;;;1.90;;
46931;SDS011;32670;51.464;11.964;2024-01-15T09:14:45;1.70;;;1.60;;
46931;SDS011;32670;51.464;11.964;2024-01-15T09:17:11;4.50;;;1.47;;
46931;SDS011;32670;51.464;11.964;2024-01-15T09:19:37;4.03;;;2.23;;
46931;SDS011;32670;51.464;11.964;2024-01-15T09:22:04;1.80;;;1.70;;
46931;SDS011;32670;51.464;11.964;2024-01-15T09:24:30;2.10;;;1.50;;
46931;SDS011;32670;51.464;11.964;2024-01-15T09:26:55;1.97;;;1.40;;
46931;SDS011;32670;51.464;11.964;2024-01-15T09:29:21;1.90;;;1.60;;
46931;SDS011;32670;51.464;11.964;2024-01-15T09:31:48;2.00;;;1.57;;
46931;SDS011;32670;51.464;11.964;2024-01-15T09:34:15;2.17;;;1.60;;
46931;SDS011;32670;51.464;11.964;2024-01-15T09:36:40;1.63;;;1.47;;
46931;SDS011;32670;51.464;11.964;2024-01-15T09:39:09;2.17;;;1.67;;
46931;SDS011;32670;51.464;11.964;2024-01-15T09:41:36;2.37;;;1.60;;
46931;SDS011;32670;51.464;11.964;2024-01-15T09:44:03;2.97;;;1.60;;
46931;SDS011;32670;51.464;11.964;2024-01-15T09:46:29;1.80;;;1.60;;
46931;SDS011;32670;51.464;11.964;2024-01-15T09:48:56;1.93;;;1.50;;
46931;SDS011;32670;51.464;11.964;2024-01-15T09:51:22;1.40;;;1.30;;
46931;SDS011;32670;51.464;11.964;2024-01-15T09:53:49;1.60;;;1.37;;
46931;SDS011;32670;51.464;11.964;2024-01-15T09:56:15;1.60;;;1.40;;
46931;SDS011;32670;51.464;11.964;2024-01-15T09:58:41;1.53;;;1.40;;
46931;SDS011;32670;51.464;11.964;2024-01-15T10:01:07;1.50;;;1.40;;
46931;SDS011;32670;51.464;11.964;2024-01-15T10:03:34;1.53;;;1.40;;
46931;SDS011;32670;51.464;11.964;2024-01-15T10:05:59;1.33;;;1.23;;
46931;SDS011;32670;51.464;11.964;2024-01-15T10:08:25;2.37;;;1.30;;
46931;SDS011;32670;51.464;11.964;2024-01-15T10:10:50;2.00;;;1.47;;
46931;SDS011;32670;51.464;11.964;2024-01-15T10:13:16;1.57;;;1.40;;
46931;SDS011;32670;51.464;11.964;2024-01-15T10:15:45;1.20;;;1.10;;
46931;SDS011;32670;51.464;11.964;2024-01-15T10:18:11;1.50;;;1.40;;
46931;SDS011;32670;51.464;11.964;2024-01-15T10:20:37;1.60;;;1.30;;
46931;SDS011;32670;51.464;11.964;2024-01-15T10:23:03;1.73;;;1.30;;
46931;SDS011;32670;51.464;11.964;2024-01-15T10:25:28;1.50;;;1.40;;
46931;SDS011;32670;51.464;11.964;2024-01-15T10:27:59;1.60;;;1.43;;
46931;SDS011;32670;51.464;11.964;2024-01-15T10:30:26;1.47;;;1.37;;
46931;SDS011;32670;51.464;11.964;2024-01-15T10:32:58;2.50;;;1.83;;
46931;SDS011;32670;51.464;11.964;2024-01-15T10:35:28;1.40;;;1.30;;
46931;SDS011;32670;51.464;11.964;2024-01-15T10:37:54;1.43;;;1.30;;
46931;SDS011;32670;51.464;11.964;2024-01-15T10:40:19;1.37;;;1.23;;
46931;SDS011;32670;51.464;11.964;2024-01-15T10:42:45;2.20;;;1.40;;
46931;SDS011;32670;51.464;11.964;2024-01-15T10:45:12;1.50;;;1.40;;
46931;SDS011;32670;51.464;11.964;2024-01-15T10:47:38;1.80;;;1.40;;
46931;SDS011;32670;51.464;11.964;2024-01-15T10:50:04;1.60;;;1.27;;
46931;SDS011;32670;51.464;11.964;2024-01-15T10:52:32;1.37;;;1.10;;
46931;SDS011;32670;51.464;11.964;2024-01-15T10:54:59;1.83;;;1.30;;
46931;SDS011;32670;51.464;11.964;2024-01-15T10:57:26;1.57;;;1.47;;
46931;SDS011;32670;51.464;11.964;2024-01-15T10:59:52;1.37;;;1.27;;
46931;SDS011;32670;51.464;11.964;2024-01-15T11:02:17;1.33;;;1.10;;
46931;SDS011;32670;51.464;11.964;2024-01-15T11:04:43;1.30;;;1.17;;
46931;SDS011;32670;51.464;11.964;2024-01-15T11:07:08;1.50;;;1.20;;
46931;SDS011;32670;51.464;11.964;2024-01-15T11:09:36;1.30;;;1.20;;
46931;SDS011;32670;51.464;11.964;2024-01-15T11:12:12;1.30;;;1.20;;
46931;SDS011;32670;51.464;11.964;2024-01-15T11:14:41;1.53;;;1.37;;
46931;SDS011;32670;51.464;11.964;2024-01-15T11:17:11;1.70;;;1.30;;
46931;SDS011;32670;51.464;11.964;2024-01-15T11:22:07;1.43;;;1.33;;
46931;SDS011;32670;51.464;11.964;2024-01-15T11:24:53;1.20;;;1.10;;
46931;SDS011;32670;51.464;11.964;2024-01-15T11:27:19;1.23;;;1.13;;
46931;SDS011;32670;51.464;11.964;2024-01-15T11:30:17;1.83;;;1.27;;
46931;SDS011;32670;51.464;11.964;2024-01-15T11:32:44;1.20;;;1.10;;
46931;SDS011;32670;51.464;11.964;2024-01-15T11:35:11;1.20;;;1.10;;
46931;SDS011;32670;51.464;11.964;2024-01-15T11:40:19;1.30;;;1.20;;
46931;SDS011;32670;51.464;11.964;2024-01-15T11:42:46;1.53;;;1.20;;
46931;SDS011;32670;51.464;11.964;2024-01-15T11:45:12;1.50;;;1.40;;
46931;SDS011;32670;51.464;11.964;2024-01-15T11:47:51;1.27;;;1.17;;
46931;SDS011;32670;51.464;11.964;2024-01-15T11:50:39;1.23;;;1.10;;
46931;SDS011;32670;51.464;11.964;2024-01-15T11:53:10;1.20;;;1.10;;
46931;SDS011;32670;51.464;11.964;2024-01-15T11:55:58;2.50;;;1.53;;
46931;SDS011;32670;51.464;11.964;2024-01-15T11:58:24;2.07;;;1.17;;
46931;SDS011;32670;51.464;11.964;2024-01-15T12:00:51;1.30;;;1.20;;
46931;SDS011;32670;51.464;11.964;2024-01-15T12:03:17;1.30;;;1.10;;
46931;SDS011;32670;51.464;11.964;2024-01-15T12:05:45;3.33;;;1.23;;
46931;SDS011;32670;51.464;11.964;2024-01-15T12:08:11;1.80;;;1.33;;
46931;SDS011;32670;51.464;11.964;2024-01-15T12:10:37;1.37;;;1.27;;
46931;SDS011;32670;51.464;11.964;2024-01-15T12:13:04;1.00;;;1.00;;
46931;SDS011;32670;51.464;11.964;2024-01-15T12:15:34;1.20;;;1.10;;
46931;SDS011;32670;51.464;11.964;2024-01-15T12:18:01;1.40;;;1.30;;
46931;SDS011;32670;51.464;11.964;2024-01-15T12:20:27;1.93;;;1.20;;
46931;SDS011;32670;51.464;11.964;2024-01-15T12:22:54;1.43;;;1.33;;
46931;SDS011;32670;51.464;11.964;2024-01-15T12:25:22;1.10;;;1.00;;
46931;SDS011;32670;51.464;11.964;2024-01-15T12:27:49;1.23;;;1.13;;
46931;SDS011;32670;51.464;11.964;2024-01-15T12:30:14;1.93;;;1.30;;
46931;SDS011;32670;51.464;11.964;2024-01-15T12:32:40;1.47;;;1.10;;
46931;SDS011;32670;51.464;11.964;2024-01-15T12:35:09;1.43;;;1.20;;
46931;SDS011;32670;51.464;11.964;2024-01-15T12:37:36;1.90;;;1.40;;
46931;SDS011;32670;51.464;11.964;2024-01-15T12:40:02;2.17;;;1.23;;
46931;SDS011;32670;51.464;11.964;2024-01-15T12:42:31;1.40;;;1.20;;
46931;SDS011;32670;51.464;11.964;2024-01-15T12:45:00;2.30;;;1.30;;
46931;SDS011;32670;51.464;11.964;2024-01-15T12:47:26;1.50;;;1.20;;
46931;SDS011;32670;51.464;11.964;2024-01-15T12:49:52;2.50;;;1.17;;
46931;SDS011;32670;51.464;11.964;2024-01-15T12:52:20;1.50;;;1.07;;
46931;SDS011;32670;51.464;11.964;2024-01-15T12:54:49;1.83;;;1.00;;
46931;SDS011;32670;51.464;11.964;2024-01-15T12:57:15;1.20;;;1.10;;
46931;SDS011;32670;51.464;11.964;2024-01-15T12:59:42;1.67;;;1.20;;
46931;SDS011;32670;51.464;11.964;2024-01-15T13:02:08;1.10;;;1.00;;
46931;SDS011;32670;51.464;11.964;2024-01-15T13:04:34;2.47;;;1.17;;
46931;SDS011;32670;51.464;11.964;2024-01-15T13:06:59;1.83;;;1.30;;
46931;SDS011;32670;51.464;11.964;2024-01-15T13:09:25;1.50;;;1.20;;
46931;SDS011;32670;51.464;11.964;2024-01-15T13:11:50;1.03;;;1.00;;
46931;SDS011;32670;51.464;11.964;2024-01-15T13:14:17;1.23;;;1.13;;
46931;SDS011;32670;51.464;11.964;2024-01-15T13:16:42;1.30;;;1.20;;
46931;SDS011;32670;51.464;11.964;2024-01-15T13:19:09;1.83;;;1.10;;
46931;SDS011;32670;51.464;11.964;2024-01-15T13:21:36;1.30;;;1.20;;
46931;SDS011;32670;51.464;11.964;2024-01-15T13:24:02;1.20;;;1.10;;
46931;SDS011;32670;51.464;11.964;2024-01-15T13:26:28;1.63;;;1.00;;
46931;SDS011;32670;51.464;11.964;2024-01-15T13:28:54;1.20;;;1.10;;
46931;SDS011;32670;51.464;11.964;2024-01-15T13:31:19;1.07;;;0.97;;
46931;SDS011;32670;51.464;11.964;2024-01-15T13:33:45;1.40;;;1.00;;
46931;SDS011;32670;51.464;11.964;2024-01-15T13:36:11;1.20;;;1.10;;
46931;SDS011;32670;51.464;11.964;2024-01-15T13:38:36;3.73;;;1.10;;
46931;SDS011;32670;51.464;11.964;2024-01-15T13:41:04;1.10;;;1.00;;
46931;SDS011;32670;51.464;11.964;2024-01-15T13:43:30;1.30;;;1.20;;
46931;SDS011;32670;51.464;11.964;2024-01-15T13:45:56;1.10;;;1.00;;
46931;SDS011;32670;51.464;11.964;2024-01-15T13:48:22;1.10;;;1.00;;
46931;SDS011;32670;51.464;11.964;2024-01-15T13:50:48;1.07;;;0.97;;
46931;SDS011;32670;51.464;11.964;2024-01-15T13:53:13;1.10;;;1.03;;
46931;SDS011;32670;51.464;11.964;2024-01-15T13:55:38;1.20;;;0.97;;
46931;SDS011;32670;51.464;11.964;2024-01-15T13:58:05;1.00;;;1.00;;
46931;SDS011;32670;51.464;11.964;2024-01-15T14:00:31;1.20;;;1.10;;
46931;SDS011;32670;51.464;11.964;2024-01-15T14:02:57;0.90;;;0.90;;
46931;SDS011;32670;51.464;11.964;2024-01-15T14:05:22;0.87;;;0.87;;
46931;SDS011;32670;51.464;11.964;2024-01-15T14:07:48;1.13;;;1.10;;
46931;SDS011;32670;51.464;11.964;2024-01-15T14:10:14;0.83;;;0.77;;
46931;SDS011;32670;51.464;11.964;2024-01-15T14:12:39;1.10;;;1.00;;
46931;SDS011;32670;51.464;11.964;2024-01-15T14:15:05;1.10;;;1.00;;
46931;SDS011;32670;51.464;11.964;2024-01-15T14:17:31;1.10;;;1.00;;
46931;SDS011;32670;51.464;11.964;2024-01-15T14:19:57;1.10;;;1.00;;
46931;SDS011;32670;51.464;11.964;2024-01-15T14:22:22;1.20;;;0.90;;
46931;SDS011;32670;51.464;11.964;2024-01-15T14:24:48;0.83;;;0.83;;
46931;SDS011;32670;51.464;11.964;2024-01-15T14:27:13;1.53;;;0.90;;
46931;SDS011;32670;51.464;11.964;2024-01-15T14:29:39;0.80;;;0.80;;
46931;SDS011;32670;51.464;11.964;2024-01-15T14:32:05;0.70;;;0.70;;